Sst Orleans — CFN5087 — position and weather

sailwx.info

Track history (hours):
 
Tides and Currents Weather Stations Pressure Air Temp Water Temp Dewpoint Dewpoint Depression Visibility Wind Speed Wind Dir Waves Ship Positions

Sst Orleans

Last reported at 2016-Dec-04 03:34 UTC. Time now 2016-Dec-04 03:56 UTC.
Position N 49°17' W 123°04'.

Length 29 m; draft 5.1 m.

Type: . MMSI: 316012721.

Date/timePositionNaut miles runAvg speedWind from/ knotsBaromVisibWave heightAir tempDewpointWater temp
2016-Dec-04 03:34N 49°17' W 123°04'0 0.0
2016-Dec-04 02:34N 49°17' W 123°04'0 0.0
2016-Dec-04 01:33N 49°17' W 123°04'0 0.0
2016-Dec-04 00:34N 49°17' W 123°04'0 0.0
2016-Dec-03 23:34N 49°17' W 123°04'0 0.0
2016-Dec-03 22:33N 49°17' W 123°04'0 0.0
2016-Dec-03 21:33N 49°17' W 123°04'0 0.0
2016-Dec-03 20:33N 49°17' W 123°04'0 0.0
2016-Dec-03 19:34N 49°17' W 123°04'1 1.3
2016-Dec-03 18:34N 49°18' W 123°06'1 0.9
2016-Dec-03 17:34N 49°18' W 123°07'0 0.2
2016-Dec-03 16:33N 49°18' W 123°07'7 6.8
2016-Dec-03 15:33N 49°20' W 123°17'1110.9
2016-Dec-03 14:34N 49°31' W 123°17'10 9.6
2016-Dec-03 13:33N 49°40' W 123°12'1 1.0
2016-Dec-03 12:34N 49°40' W 123°13'9 9.1
2016-Dec-03 11:34N 49°31' W 123°16'9 8.7
2016-Dec-03 10:34N 49°22' W 123°18'8 7.7
2016-Dec-03 09:33N 49°19' W 123°08'3 2.8
2016-Dec-03 08:33N 49°17' W 123°04'0 0.0
2016-Dec-03 07:34N 49°17' W 123°04'0 0.0
2016-Dec-03 06:34N 49°17' W 123°04'0 0.0
2016-Dec-03 05:34N 49°17' W 123°04'0 0.0
2016-Dec-03 04:34N 49°17' W 123°04'0 0.0
2016-Dec-03 03:33N 49°17' W 123°04'0 0.0
2016-Dec-03 02:33N 49°17' W 123°04'0 0.0
2016-Dec-03 01:34N 49°17' W 123°04'0 0.0
2016-Dec-03 00:34N 49°17' W 123°04'0 0.0
2016-Dec-02 23:34N 49°17' W 123°04'0 0.0
2016-Dec-02 22:34N 49°17' W 123°04'0 0.0
2016-Dec-02 21:33N 49°17' W 123°04'0 0.0
2016-Dec-02 20:34N 49°17' W 123°04'0 0.0
2016-Dec-02 19:33N 49°17' W 123°04'0 0.0
2016-Dec-02 18:34N 49°17' W 123°04'0 0.0
2016-Dec-02 17:33N 49°17' W 123°04'0 0.0
2016-Dec-02 16:34N 49°17' W 123°04'0 0.0
2016-Dec-02 15:34N 49°17' W 123°04'0 0.0
2016-Dec-02 14:34N 49°17' W 123°04'0 0.0
2016-Dec-02 13:34N 49°17' W 123°04'0 0.0
2016-Dec-02 12:34N 49°17' W 123°04'0 0.0
2016-Dec-02 11:33N 49°17' W 123°04'0 0.0
2016-Dec-02 10:34N 49°17' W 123°04'0 0.0
2016-Dec-02 09:34N 49°17' W 123°04'0 0.0
2016-Dec-02 08:34N 49°17' W 123°04'0 0.0
2016-Dec-02 07:34N 49°17' W 123°04'0 0.0
2016-Dec-02 06:33N 49°17' W 123°04'0 0.0
2016-Dec-02 05:33N 49°17' W 123°04'0 0.0
2016-Dec-02 04:34N 49°17' W 123°04'0 0.0
2016-Dec-02 03:34N 49°17' W 123°04'0 0.0
2016-Dec-02 02:34N 49°17' W 123°04'1 0.7
2016-Dec-02 01:33N 49°17' W 123°05'5 5.1
2016-Dec-02 00:33N 49°20' W 123°12'9 8.6
2016-Dec-01 23:34N 49°27' W 123°17'9 9.2
2016-Dec-01 22:33N 49°36' W 123°14'5 5.4
2016-Dec-01 21:33N 49°41' W 123°10'2 1.6
2016-Dec-01 20:33N 49°40' W 123°12'8 7.6
2016-Dec-01 19:34N 49°33' W 123°16'9 8.5
2016-Dec-01 18:33N 49°24' W 123°18'7 6.9
2016-Dec-01 17:34N 49°19' W 123°11'5 4.9
2016-Dec-01 16:33N 49°17' W 123°04'0 0.0
2016-Dec-01 15:34N 49°17' W 123°04'0 0.0
2016-Dec-01 14:34N 49°17' W 123°04'0 0.0
2016-Dec-01 13:34N 49°17' W 123°04'0 0.0
2016-Dec-01 12:34N 49°17' W 123°04'0 0.0
2016-Dec-01 11:34N 49°17' W 123°04'0 0.0
2016-Dec-01 10:34N 49°17' W 123°04'1 1.4
2016-Dec-01 09:34N 49°17' W 123°06'0 0.1
2016-Dec-01 08:34N 49°17' W 123°06'0 0.0
2016-Dec-01 07:34N 49°17' W 123°06'0 0.0
2016-Dec-01 06:34N 49°17' W 123°06'0 0.0
2016-Dec-01 05:34N 49°17' W 123°06'1 1.4
2016-Dec-01 04:33N 49°17' W 123°04'0 0.0
2016-Dec-01 03:34N 49°17' W 123°04'0 0.0
2016-Dec-01 02:34N 49°17' W 123°04'0 0.0
2016-Dec-01 01:33N 49°17' W 123°04'0 0.0
2016-Dec-01 00:34N 49°17' W 123°04'1 1.0
2016-Nov-30 23:34N 49°18' W 123°02'1 1.0
2016-Nov-30 22:34N 49°17' W 123°04'0 0.0
2016-Nov-30 21:34N 49°17' W 123°04'0 0.0
2016-Nov-30 20:33N 49°17' W 123°04'0 0.0
2016-Nov-30 19:34N 49°17' W 123°04'0 0.0
2016-Nov-30 18:34N 49°17' W 123°04'0 0.0
2016-Nov-30 17:34N 49°17' W 123°04'0 0.0
2016-Nov-30 16:33N 49°17' W 123°04'0 0.0
2016-Nov-30 15:34N 49°17' W 123°04'0 0.1
2016-Nov-30 14:34N 49°17' W 123°04'1 1.3
2016-Nov-30 13:34N 49°18' W 123°06'1 1.4
2016-Nov-30 12:34N 49°17' W 123°04'0 0.0
2016-Nov-30 11:34N 49°17' W 123°04'0 0.0
2016-Nov-30 10:34N 49°17' W 123°04'0 0.0
2016-Nov-30 09:34N 49°17' W 123°04'0 0.0
2016-Nov-30 08:33N 49°17' W 123°04'0 0.0
2016-Nov-30 07:34N 49°17' W 123°04'0 0.0
2016-Nov-30 06:34N 49°17' W 123°04'0 0.0
2016-Nov-30 05:34N 49°17' W 123°04'0 0.0
2016-Nov-30 04:34N 49°17' W 123°04'0 0.0
2016-Nov-30 03:34N 49°17' W 123°04'0 0.0
2016-Nov-30 02:34N 49°17' W 123°04'0 0.0
2016-Nov-30 01:34N 49°17' W 123°04'0 0.0
2016-Nov-30 00:34N 49°17' W 123°04'1 0.8
2016-Nov-29 23:33N 49°18' W 123°03'0 0.0
2016-Nov-29 22:34N 49°18' W 123°03'0 0.1
2016-Nov-29 21:34N 49°18' W 123°03'0 0.1
2016-Nov-29 20:34N 49°18' W 123°03'1 0.8
2016-Nov-29 19:34N 49°17' W 123°04'0 0.0
2016-Nov-29 18:34N 49°17' W 123°04'0 0.0
2016-Nov-29 17:33N 49°17' W 123°04'0 0.0
2016-Nov-29 16:33N 49°17' W 123°04'2 2.2
2016-Nov-29 15:33N 49°18' W 123°07'9 8.8
2016-Nov-29 14:34N 49°23' W 123°18'8 1.4
2016-Nov-29 09:16N 49°31' W 123°16'6 7.8
2016-Nov-29 08:33N 49°25' W 123°17'7 7.5
2016-Nov-29 07:34N 49°19' W 123°11'5 5.0
2016-Nov-29 06:34N 49°17' W 123°04'0 0.0
2016-Nov-29 05:34N 49°17' W 123°04'0 0.0
2016-Nov-29 04:34N 49°17' W 123°04'0 0.0
2016-Nov-29 03:33N 49°17' W 123°04'0 0.0
2016-Nov-29 02:34N 49°17' W 123°04'0 0.0
2016-Nov-29 01:33N 49°17' W 123°04'0 0.0
2016-Nov-29 00:33N 49°17' W 123°04'0 0.0
2016-Nov-28 23:34N 49°17' W 123°04'1 0.7
2016-Nov-28 22:34N 49°18' W 123°03'7 6.9
2016-Nov-28 21:34N 49°17' W 122°52'0 0.0
2016-Nov-28 20:34N 49°17' W 122°52'2 1.8
2016-Nov-28 19:34N 49°18' W 122°55'6 5.8
2016-Nov-28 18:34N 49°17' W 123°04'0 0.0
2016-Nov-28 17:34N 49°17' W 123°04'0 0.0
2016-Nov-28 16:34N 49°17' W 123°04'0 0.0
2016-Nov-28 15:34N 49°17' W 123°04'0 0.3
2016-Nov-28 14:34N 49°18' W 123°04'9 9.2
2016-Nov-28 13:33N 49°21' W 123°17'7 7.2
2016-Nov-28 12:33N 49°25' W 123°26'6 6.2
2016-Nov-28 11:34N 49°31' W 123°29'1 1.0
2016-Nov-28 10:33N 49°30' W 123°28'6 5.7
2016-Nov-28 09:33N 49°26' W 123°23'7 7.5
2016-Nov-28 08:33N 49°20' W 123°16'9 8.6
2016-Nov-28 07:34N 49°17' W 123°04'0 0.0
2016-Nov-28 06:34N 49°17' W 123°04'0 0.0
2016-Nov-28 05:34N 49°17' W 123°04'0 0.0
2016-Nov-28 04:33N 49°17' W 123°04'0 0.0
2016-Nov-28 03:34N 49°17' W 123°04'0 0.0
2016-Nov-28 02:34N 49°17' W 123°04'1 0.5
2016-Nov-28 01:34N 49°18' W 123°03'1 0.7
2016-Nov-28 00:34N 49°17' W 123°04'0 0.3
2016-Nov-27 23:33N 49°17' W 123°04'0 0.0
2016-Nov-27 22:34N 49°17' W 123°04'0 0.0
2016-Nov-27 21:34N 49°17' W 123°04'0 0.0
2016-Nov-27 20:34N 49°17' W 123°04'2 2.4
2016-Nov-27 19:34N 49°18' W 123°07'1 1.2
2016-Nov-27 18:34N 49°18' W 123°05'1 1.2
2016-Nov-27 17:34N 49°17' W 123°04'0 0.0
2016-Nov-27 16:33N 49°17' W 123°04'0 0.0
2016-Nov-27 15:33N 49°17' W 123°04'0 0.0
2016-Nov-27 14:34N 49°17' W 123°04'0 0.0
2016-Nov-27 13:34N 49°17' W 123°04'0 0.0
2016-Nov-27 12:34N 49°17' W 123°04'0 0.0
2016-Nov-27 11:34N 49°17' W 123°04'0 0.0
2016-Nov-27 10:34N 49°17' W 123°04'6 6.4
2016-Nov-27 09:34N 49°18' W 122°54'1 1.2
2016-Nov-27 08:33N 49°17' W 122°52'3 2.8
2016-Nov-27 07:34N 49°18' W 122°56'5 4.9
2016-Nov-27 06:33N 49°17' W 123°04'0 0.0
2016-Nov-27 05:33N 49°17' W 123°04'0 0.0
2016-Nov-27 04:34N 49°17' W 123°04'0 0.0
2016-Nov-27 03:34N 49°17' W 123°04'0 0.0
2016-Nov-27 02:34N 49°17' W 123°04'0 0.0
2016-Nov-27 01:33N 49°17' W 123°04'0 0.0
2016-Nov-27 00:34N 49°17' W 123°04'0 0.0
2016-Nov-26 23:34N 49°17' W 123°04'0 0.0
2016-Nov-26 22:34N 49°17' W 123°04'0 0.0
2016-Nov-26 21:34N 49°17' W 123°04'0 0.0
2016-Nov-26 20:34N 49°17' W 123°04'0 0.0
2016-Nov-26 19:33N 49°17' W 123°04'1 1.1
2016-Nov-26 18:34N 49°18' W 123°05'1 1.2
2016-Nov-26 17:34N 49°18' W 123°07'0 0.0
2016-Nov-26 16:34N 49°18' W 123°07'2 1.6
2016-Nov-26 15:33N 49°17' W 123°05'0 0.2
2016-Nov-26 14:34N 49°18' W 123°05'1 0.6
2016-Nov-26 13:33N 49°17' W 123°04'0 0.0
2016-Nov-26 12:33N 49°17' W 123°04'0 0.0
2016-Nov-26 11:33N 49°17' W 123°04'0 0.0
2016-Nov-26 10:34N 49°17' W 123°04'0 0.0
2016-Nov-26 09:33N 49°17' W 123°04'5 4.8
2016-Nov-26 08:34N 49°19' W 123°11'9 8.8
2016-Nov-26 07:32N 49°27' W 123°17'2 0.5
2016-Nov-26 03:31N 49°25' W 123°18'8 8.4
2016-Nov-26 02:33N 49°19' W 123°09'4 3.9
2016-Nov-26 01:33N 49°17' W 123°04'0 0.0
2016-Nov-26 00:33N 49°17' W 123°04'0 0.0
2016-Nov-25 23:33N 49°17' W 123°04'0 0.0
2016-Nov-25 15:33N 49°17' W 123°04'0 0.0
2016-Nov-25 14:33N 49°17' W 123°04'0 0.0
2016-Nov-25 13:33N 49°17' W 123°04'0 0.0
2016-Nov-25 12:33N 49°17' W 123°04'0 0.0
2016-Nov-25 11:33N 49°17' W 123°04'0 0.0
2016-Nov-25 10:33N 49°17' W 123°04'0 0.0
2016-Nov-25 09:33N 49°17' W 123°04'0 0.0
2016-Nov-25 08:33N 49°17' W 123°04'0 0.0
2016-Nov-25 07:33N 49°17' W 123°04'0 0.0
2016-Nov-25 06:33N 49°17' W 123°04'0 0.0
2016-Nov-25 05:33N 49°17' W 123°04'0 0.0
2016-Nov-25 04:33N 49°17' W 123°04'0 0.0
2016-Nov-25 03:33N 49°17' W 123°04'0 0.0
2016-Nov-25 02:33N 49°17' W 123°04'0 0.0
2016-Nov-25 01:33N 49°17' W 123°04'0 0.0
2016-Nov-25 00:33N 49°17' W 123°04'1 0.7
2016-Nov-24 23:33N 49°17' W 123°05'1 0.7
2016-Nov-24 22:33N 49°17' W 123°04'0 0.0
2016-Nov-24 21:33N 49°17' W 123°04'0 0.0
2016-Nov-24 20:33N 49°17' W 123°04'0 0.0
2016-Nov-24 19:33N 49°17' W 123°04'0 0.0
2016-Nov-24 18:33N 49°17' W 123°04'0 0.0
2016-Nov-24 17:33N 49°17' W 123°04'0 0.0
2016-Nov-24 16:33N 49°17' W 123°04'0 0.0
2016-Nov-24 15:33N 49°17' W 123°04'0 0.0
2016-Nov-24 14:33N 49°17' W 123°04'0 0.0
2016-Nov-24 13:33N 49°17' W 123°04'0 0.0
2016-Nov-24 12:33N 49°17' W 123°04'0 0.0
2016-Nov-24 11:33N 49°17' W 123°04'0 0.0
2016-Nov-24 10:33N 49°17' W 123°04'0 0.0
2016-Nov-24 09:33N 49°17' W 123°04'0 0.0
2016-Nov-24 08:33N 49°17' W 123°04'0 0.0
2016-Nov-24 07:33N 49°17' W 123°04'0 0.0
2016-Nov-24 06:33N 49°17' W 123°04'3 2.6
2016-Nov-24 05:33N 49°18' W 123°07'0 0.3
2016-Nov-24 04:33N 49°19' W 123°07'  
Track history (hours):
 
Tides and Currents Weather Stations Pressure Air Temp Water Temp Dewpoint Dewpoint Depression Visibility Wind Speed Wind Dir Waves Ship Positions

Sst Orleans

Last reported at 2016-Dec-04 03:34 UTC. Time now 2016-Dec-04 03:56 UTC.
Position N 49°17' W 123°04'.

Length 29 m; draft 5.1 m.

Type: . MMSI: 316012721.

Date/timePositionNaut miles runAvg speedWind from/ knotsBaromVisibWave heightAir tempDewpointWater temp
2016-Dec-04 03:34N 49°17' W 123°04'0 0.0
2016-Dec-04 02:34N 49°17' W 123°04'0 0.0
2016-Dec-04 01:33N 49°17' W 123°04'0 0.0
2016-Dec-04 00:34N 49°17' W 123°04'0 0.0
2016-Dec-03 23:34N 49°17' W 123°04'0 0.0
2016-Dec-03 22:33N 49°17' W 123°04'0 0.0
2016-Dec-03 21:33N 49°17' W 123°04'0 0.0
2016-Dec-03 20:33N 49°17' W 123°04'0 0.0
2016-Dec-03 19:34N 49°17' W 123°04'1 1.3
2016-Dec-03 18:34N 49°18' W 123°06'1 0.9
2016-Dec-03 17:34N 49°18' W 123°07'0 0.2
2016-Dec-03 16:33N 49°18' W 123°07'7 6.8
2016-Dec-03 15:33N 49°20' W 123°17'1110.9
2016-Dec-03 14:34N 49°31' W 123°17'10 9.6
2016-Dec-03 13:33N 49°40' W 123°12'1 1.0
2016-Dec-03 12:34N 49°40' W 123°13'9 9.1
2016-Dec-03 11:34N 49°31' W 123°16'9 8.7
2016-Dec-03 10:34N 49°22' W 123°18'8 7.7
2016-Dec-03 09:33N 49°19' W 123°08'3 2.8
2016-Dec-03 08:33N 49°17' W 123°04'0 0.0
2016-Dec-03 07:34N 49°17' W 123°04'0 0.0
2016-Dec-03 06:34N 49°17' W 123°04'0 0.0
2016-Dec-03 05:34N 49°17' W 123°04'0 0.0
2016-Dec-03 04:34N 49°17' W 123°04'0 0.0
2016-Dec-03 03:33N 49°17' W 123°04'0 0.0
2016-Dec-03 02:33N 49°17' W 123°04'0 0.0
2016-Dec-03 01:34N 49°17' W 123°04'0 0.0
2016-Dec-03 00:34N 49°17' W 123°04'0 0.0
2016-Dec-02 23:34N 49°17' W 123°04'0 0.0
2016-Dec-02 22:34N 49°17' W 123°04'0 0.0
2016-Dec-02 21:33N 49°17' W 123°04'0 0.0
2016-Dec-02 20:34N 49°17' W 123°04'0 0.0
2016-Dec-02 19:33N 49°17' W 123°04'0 0.0
2016-Dec-02 18:34N 49°17' W 123°04'0 0.0
2016-Dec-02 17:33N 49°17' W 123°04'0 0.0
2016-Dec-02 16:34N 49°17' W 123°04'0 0.0
2016-Dec-02 15:34N 49°17' W 123°04'0 0.0
2016-Dec-02 14:34N 49°17' W 123°04'0 0.0
2016-Dec-02 13:34N 49°17' W 123°04'0 0.0
2016-Dec-02 12:34N 49°17' W 123°04'0 0.0
2016-Dec-02 11:33N 49°17' W 123°04'0 0.0
2016-Dec-02 10:34N 49°17' W 123°04'0 0.0
2016-Dec-02 09:34N 49°17' W 123°04'0 0.0
2016-Dec-02 08:34N 49°17' W 123°04'0 0.0
2016-Dec-02 07:34N 49°17' W 123°04'0 0.0
2016-Dec-02 06:33N 49°17' W 123°04'0 0.0
2016-Dec-02 05:33N 49°17' W 123°04'0 0.0
2016-Dec-02 04:34N 49°17' W 123°04'0 0.0
2016-Dec-02 03:34N 49°17' W 123°04'0 0.0
2016-Dec-02 02:34N 49°17' W 123°04'1 0.7
2016-Dec-02 01:33N 49°17' W 123°05'5 5.1
2016-Dec-02 00:33N 49°20' W 123°12'9 8.6
2016-Dec-01 23:34N 49°27' W 123°17'9 9.2
2016-Dec-01 22:33N 49°36' W 123°14'5 5.4
2016-Dec-01 21:33N 49°41' W 123°10'2 1.6
2016-Dec-01 20:33N 49°40' W 123°12'8 7.6
2016-Dec-01 19:34N 49°33' W 123°16'9 8.5
2016-Dec-01 18:33N 49°24' W 123°18'7 6.9
2016-Dec-01 17:34N 49°19' W 123°11'5 4.9
2016-Dec-01 16:33N 49°17' W 123°04'0 0.0
2016-Dec-01 15:34N 49°17' W 123°04'0 0.0
2016-Dec-01 14:34N 49°17' W 123°04'0 0.0
2016-Dec-01 13:34N 49°17' W 123°04'0 0.0
2016-Dec-01 12:34N 49°17' W 123°04'0 0.0
2016-Dec-01 11:34N 49°17' W 123°04'0 0.0
2016-Dec-01 10:34N 49°17' W 123°04'1 1.4
2016-Dec-01 09:34N 49°17' W 123°06'0 0.1
2016-Dec-01 08:34N 49°17' W 123°06'0 0.0
2016-Dec-01 07:34N 49°17' W 123°06'0 0.0
2016-Dec-01 06:34N 49°17' W 123°06'0 0.0
2016-Dec-01 05:34N 49°17' W 123°06'1 1.4
2016-Dec-01 04:33N 49°17' W 123°04'0 0.0
2016-Dec-01 03:34N 49°17' W 123°04'0 0.0
2016-Dec-01 02:34N 49°17' W 123°04'0 0.0
2016-Dec-01 01:33N 49°17' W 123°04'0 0.0
2016-Dec-01 00:34N 49°17' W 123°04'1 1.0
2016-Nov-30 23:34N 49°18' W 123°02'1 1.0
2016-Nov-30 22:34N 49°17' W 123°04'0 0.0
2016-Nov-30 21:34N 49°17' W 123°04'0 0.0
2016-Nov-30 20:33N 49°17' W 123°04'0 0.0
2016-Nov-30 19:34N 49°17' W 123°04'0 0.0
2016-Nov-30 18:34N 49°17' W 123°04'0 0.0
2016-Nov-30 17:34N 49°17' W 123°04'0 0.0
2016-Nov-30 16:33N 49°17' W 123°04'0 0.0
2016-Nov-30 15:34N 49°17' W 123°04'0 0.1
2016-Nov-30 14:34N 49°17' W 123°04'1 1.3
2016-Nov-30 13:34N 49°18' W 123°06'1 1.4
2016-Nov-30 12:34N 49°17' W 123°04'0 0.0
2016-Nov-30 11:34N 49°17' W 123°04'0 0.0
2016-Nov-30 10:34N 49°17' W 123°04'0 0.0
2016-Nov-30 09:34N 49°17' W 123°04'0 0.0
2016-Nov-30 08:33N 49°17' W 123°04'0 0.0
2016-Nov-30 07:34N 49°17' W 123°04'0 0.0
2016-Nov-30 06:34N 49°17' W 123°04'0 0.0
2016-Nov-30 05:34N 49°17' W 123°04'0 0.0
2016-Nov-30 04:34N 49°17' W 123°04'0 0.0
2016-Nov-30 03:34N 49°17' W 123°04'0 0.0
2016-Nov-30 02:34N 49°17' W 123°04'0 0.0
2016-Nov-30 01:34N 49°17' W 123°04'0 0.0
2016-Nov-30 00:34N 49°17' W 123°04'1 0.8
2016-Nov-29 23:33N 49°18' W 123°03'0 0.0
2016-Nov-29 22:34N 49°18' W 123°03'0 0.1
2016-Nov-29 21:34N 49°18' W 123°03'0 0.1
2016-Nov-29 20:34N 49°18' W 123°03'1 0.8
2016-Nov-29 19:34N 49°17' W 123°04'0 0.0
2016-Nov-29 18:34N 49°17' W 123°04'0 0.0
2016-Nov-29 17:33N 49°17' W 123°04'0 0.0
2016-Nov-29 16:33N 49°17' W 123°04'2 2.2
2016-Nov-29 15:33N 49°18' W 123°07'9 8.8
2016-Nov-29 14:34N 49°23' W 123°18'8 1.4
2016-Nov-29 09:16N 49°31' W 123°16'6 7.8
2016-Nov-29 08:33N 49°25' W 123°17'7 7.5
2016-Nov-29 07:34N 49°19' W 123°11'5 5.0
2016-Nov-29 06:34N 49°17' W 123°04'0 0.0
2016-Nov-29 05:34N 49°17' W 123°04'0 0.0
2016-Nov-29 04:34N 49°17' W 123°04'0 0.0
2016-Nov-29 03:33N 49°17' W 123°04'0 0.0
2016-Nov-29 02:34N 49°17' W 123°04'0 0.0
2016-Nov-29 01:33N 49°17' W 123°04'0 0.0
2016-Nov-29 00:33N 49°17' W 123°04'0 0.0
2016-Nov-28 23:34N 49°17' W 123°04'1 0.7
2016-Nov-28 22:34N 49°18' W 123°03'7 6.9
2016-Nov-28 21:34N 49°17' W 122°52'0 0.0
2016-Nov-28 20:34N 49°17' W 122°52'2 1.8
2016-Nov-28 19:34N 49°18' W 122°55'6 5.8
2016-Nov-28 18:34N 49°17' W 123°04'0 0.0
2016-Nov-28 17:34N 49°17' W 123°04'0 0.0
2016-Nov-28 16:34N 49°17' W 123°04'0 0.0
2016-Nov-28 15:34N 49°17' W 123°04'0 0.3
2016-Nov-28 14:34N 49°18' W 123°04'9 9.2
2016-Nov-28 13:33N 49°21' W 123°17'7 7.2
2016-Nov-28 12:33N 49°25' W 123°26'6 6.2
2016-Nov-28 11:34N 49°31' W 123°29'1 1.0
2016-Nov-28 10:33N 49°30' W 123°28'6 5.7
2016-Nov-28 09:33N 49°26' W 123°23'7 7.5
2016-Nov-28 08:33N 49°20' W 123°16'9 8.6
2016-Nov-28 07:34N 49°17' W 123°04'0 0.0
2016-Nov-28 06:34N 49°17' W 123°04'0 0.0
2016-Nov-28 05:34N 49°17' W 123°04'0 0.0
2016-Nov-28 04:33N 49°17' W 123°04'0 0.0
2016-Nov-28 03:34N 49°17' W 123°04'0 0.0
2016-Nov-28 02:34N 49°17' W 123°04'1 0.5
2016-Nov-28 01:34N 49°18' W 123°03'1 0.7
2016-Nov-28 00:34N 49°17' W 123°04'0 0.3
2016-Nov-27 23:33N 49°17' W 123°04'0 0.0
2016-Nov-27 22:34N 49°17' W 123°04'0 0.0
2016-Nov-27 21:34N 49°17' W 123°04'0 0.0
2016-Nov-27 20:34N 49°17' W 123°04'2 2.4
2016-Nov-27 19:34N 49°18' W 123°07'1 1.2
2016-Nov-27 18:34N 49°18' W 123°05'1 1.2
2016-Nov-27 17:34N 49°17' W 123°04'0 0.0
2016-Nov-27 16:33N 49°17' W 123°04'0 0.0
2016-Nov-27 15:33N 49°17' W 123°04'0 0.0
2016-Nov-27 14:34N 49°17' W 123°04'0 0.0
2016-Nov-27 13:34N 49°17' W 123°04'0 0.0
2016-Nov-27 12:34N 49°17' W 123°04'0 0.0
2016-Nov-27 11:34N 49°17' W 123°04'0 0.0
2016-Nov-27 10:34N 49°17' W 123°04'6 6.4
2016-Nov-27 09:34N 49°18' W 122°54'1 1.2
2016-Nov-27 08:33N 49°17' W 122°52'3 2.8
2016-Nov-27 07:34N 49°18' W 122°56'5 4.9
2016-Nov-27 06:33N 49°17' W 123°04'0 0.0
2016-Nov-27 05:33N 49°17' W 123°04'0 0.0
2016-Nov-27 04:34N 49°17' W 123°04'0 0.0
2016-Nov-27 03:34N 49°17' W 123°04'0 0.0
2016-Nov-27 02:34N 49°17' W 123°04'0 0.0
2016-Nov-27 01:33N 49°17' W 123°04'0 0.0
2016-Nov-27 00:34N 49°17' W 123°04'0 0.0
2016-Nov-26 23:34N 49°17' W 123°04'0 0.0
2016-Nov-26 22:34N 49°17' W 123°04'0 0.0
2016-Nov-26 21:34N 49°17' W 123°04'0 0.0
2016-Nov-26 20:34N 49°17' W 123°04'0 0.0
2016-Nov-26 19:33N 49°17' W 123°04'1 1.1
2016-Nov-26 18:34N 49°18' W 123°05'1 1.2
2016-Nov-26 17:34N 49°18' W 123°07'0 0.0
2016-Nov-26 16:34N 49°18' W 123°07'2 1.6
2016-Nov-26 15:33N 49°17' W 123°05'0 0.2
2016-Nov-26 14:34N 49°18' W 123°05'1 0.6
2016-Nov-26 13:33N 49°17' W 123°04'0 0.0
2016-Nov-26 12:33N 49°17' W 123°04'0 0.0
2016-Nov-26 11:33N 49°17' W 123°04'0 0.0
2016-Nov-26 10:34N 49°17' W 123°04'0 0.0
2016-Nov-26 09:33N 49°17' W 123°04'5 4.8
2016-Nov-26 08:34N 49°19' W 123°11'9 8.8
2016-Nov-26 07:32N 49°27' W 123°17'2 0.5
2016-Nov-26 03:31N 49°25' W 123°18'8 8.4
2016-Nov-26 02:33N 49°19' W 123°09'4 3.9
2016-Nov-26 01:33N 49°17' W 123°04'0 0.0
2016-Nov-26 00:33N 49°17' W 123°04'0 0.0
2016-Nov-25 23:33N 49°17' W 123°04'0 0.0
2016-Nov-25 15:33N 49°17' W 123°04'0 0.0
2016-Nov-25 14:33N 49°17' W 123°04'0 0.0
2016-Nov-25 13:33N 49°17' W 123°04'0 0.0
2016-Nov-25 12:33N 49°17' W 123°04'0 0.0
2016-Nov-25 11:33N 49°17' W 123°04'0 0.0
2016-Nov-25 10:33N 49°17' W 123°04'0 0.0
2016-Nov-25 09:33N 49°17' W 123°04'0 0.0
2016-Nov-25 08:33N 49°17' W 123°04'0 0.0
2016-Nov-25 07:33N 49°17' W 123°04'0 0.0
2016-Nov-25 06:33N 49°17' W 123°04'0 0.0
2016-Nov-25 05:33N 49°17' W 123°04'0 0.0
2016-Nov-25 04:33N 49°17' W 123°04'0 0.0
2016-Nov-25 03:33N 49°17' W 123°04'0 0.0
2016-Nov-25 02:33N 49°17' W 123°04'0 0.0
2016-Nov-25 01:33N 49°17' W 123°04'0 0.0
2016-Nov-25 00:33N 49°17' W 123°04'1 0.7
2016-Nov-24 23:33N 49°17' W 123°05'1 0.7
2016-Nov-24 22:33N 49°17' W 123°04'0 0.0
2016-Nov-24 21:33N 49°17' W 123°04'0 0.0
2016-Nov-24 20:33N 49°17' W 123°04'0 0.0
2016-Nov-24 19:33N 49°17' W 123°04'0 0.0
2016-Nov-24 18:33N 49°17' W 123°04'0 0.0
2016-Nov-24 17:33N 49°17' W 123°04'0 0.0
2016-Nov-24 16:33N 49°17' W 123°04'0 0.0
2016-Nov-24 15:33N 49°17' W 123°04'0 0.0
2016-Nov-24 14:33N 49°17' W 123°04'0 0.0
2016-Nov-24 13:33N 49°17' W 123°04'0 0.0
2016-Nov-24 12:33N 49°17' W 123°04'0 0.0
2016-Nov-24 11:33N 49°17' W 123°04'0 0.0
2016-Nov-24 10:33N 49°17' W 123°04'0 0.0
2016-Nov-24 09:33N 49°17' W 123°04'0 0.0
2016-Nov-24 08:33N 49°17' W 123°04'0 0.0
2016-Nov-24 07:33N 49°17' W 123°04'0 0.0
2016-Nov-24 06:33N 49°17' W 123°04'3 2.6
2016-Nov-24 05:33N 49°18' W 123°07'0 0.3
2016-Nov-24 04:33N 49°19' W 123°07'  

Dump ship's entire track history